createdAt,value
2023-01-30T00:01:00.734Z,20.58
2023-01-30T00:03:29.417Z,19.88
2023-01-30T00:05:56.829Z,19.67
2023-01-30T00:08:24.086Z,20.02
2023-01-30T00:10:51.407Z,19.55
2023-01-30T00:13:18.661Z,20.02
2023-01-30T00:15:45.918Z,19.90
2023-01-30T00:18:13.200Z,19.63
2023-01-30T00:20:40.477Z,20.13
2023-01-30T00:23:07.713Z,19.83
2023-01-30T00:25:35.114Z,19.58
2023-01-30T00:28:02.502Z,19.45
2023-01-30T00:30:30.702Z,19.45
2023-01-30T00:32:59.341Z,19.05
2023-01-30T00:35:28.772Z,18.88
2023-01-30T00:37:57.916Z,19.70
2023-01-30T00:40:26.377Z,19.17
2023-01-30T00:43:13.232Z,19.65
2023-01-30T00:46:03.854Z,19.38
2023-01-30T00:48:32.034Z,18.65
2023-01-30T00:50:59.333Z,19.00
2023-01-30T00:53:27.759Z,18.77
2023-01-30T00:55:56.882Z,19.73
2023-01-30T00:58:24.787Z,18.67
2023-01-30T01:00:52.444Z,20.05
2023-01-30T01:03:20.198Z,18.75
2023-01-30T01:05:47.687Z,18.10
2023-01-30T01:08:15.891Z,18.67
2023-01-30T01:10:43.128Z,19.10
2023-01-30T01:13:10.682Z,18.60
2023-01-30T01:15:38.167Z,17.80
2023-01-30T01:18:06.288Z,20.27
2023-01-30T01:20:33.607Z,17.70
2023-01-30T01:23:00.947Z,17.63
2023-01-30T01:25:28.340Z,17.98
2023-01-30T01:27:55.844Z,18.20
2023-01-30T01:30:23.284Z,18.33
2023-01-30T01:32:50.605Z,17.33
2023-01-30T01:35:20.041Z,18.88
2023-01-30T01:37:47.581Z,17.70
2023-01-30T01:40:38.741Z,18.38
2023-01-30T01:43:22.201Z,17.98
2023-01-30T01:46:21.805Z,18.00
2023-01-30T01:48:52.570Z,17.77
2023-01-30T01:51:28.032Z,17.65
2023-01-30T01:54:02.021Z,17.88
2023-01-30T01:56:32.843Z,17.35
2023-01-30T01:59:09.095Z,18.13
2023-01-30T02:01:38.802Z,18.30
2023-01-30T02:04:10.135Z,17.92
2023-01-30T02:06:39.936Z,17.52
2023-01-30T02:09:09.188Z,19.00
2023-01-30T02:11:47.105Z,18.95
2023-01-30T02:14:14.962Z,17.45
2023-01-30T02:16:44.288Z,17.98
2023-01-30T02:19:39.955Z,19.05
2023-01-30T02:22:16.310Z,18.77
2023-01-30T02:24:44.097Z,18.23
2023-01-30T02:27:23.894Z,19.35
2023-01-30T02:30:26.749Z,19.15
2023-01-30T02:33:28.682Z,19.25
2023-01-30T02:36:09.674Z,17.73
2023-01-30T02:38:47.626Z,18.90
2023-01-30T02:41:42.834Z,18.60
2023-01-30T02:44:16.878Z,18.52
2023-01-30T02:46:54.260Z,18.73
2023-01-30T02:49:29.365Z,18.48
2023-01-30T02:51:58.033Z,19.30
2023-01-30T02:54:25.379Z,17.90
2023-01-30T02:56:58.581Z,17.90
2023-01-30T02:59:35.168Z,18.55
2023-01-30T03:02:17.768Z,17.58
2023-01-30T03:05:03.885Z,18.38
2023-01-30T03:07:50.024Z,17.70
2023-01-30T03:10:28.443Z,17.27
2023-01-30T03:13:07.250Z,18.30
2023-01-30T03:15:46.278Z,18.23
2023-01-30T03:18:13.916Z,18.23
2023-01-30T03:20:41.446Z,18.33
2023-01-30T03:23:09.016Z,18.13
2023-01-30T03:25:38.376Z,17.75
2023-01-30T03:28:06.151Z,17.20
2023-01-30T03:30:33.743Z,17.45
2023-01-30T03:33:08.166Z,18.83
2023-01-30T03:35:37.090Z,18.95
2023-01-30T03:38:04.780Z,18.83
2023-01-30T03:40:32.094Z,18.02
2023-01-30T03:42:59.712Z,18.40
2023-01-30T03:45:26.984Z,17.95
2023-01-30T03:47:54.341Z,18.13
2023-01-30T03:50:21.815Z,18.00
2023-01-30T03:52:49.124Z,18.83
2023-01-30T03:55:19.981Z,18.30
2023-01-30T03:57:47.727Z,18.25
2023-01-30T04:00:16.295Z,17.33
2023-01-30T04:02:43.703Z,17.75
2023-01-30T04:05:14.163Z,18.50
2023-01-30T04:07:46.400Z,18.10
2023-01-30T04:10:15.488Z,18.05
2023-01-30T04:12:43.065Z,18.05
2023-01-30T04:15:11.619Z,17.77
2023-01-30T04:17:59.034Z,17.17
2023-01-30T04:20:46.663Z,19.48
2023-01-30T04:23:15.922Z,18.00
2023-01-30T04:25:48.738Z,17.90
2023-01-30T04:28:18.827Z,17.98
2023-01-30T04:30:46.288Z,18.77
2023-01-30T04:33:36.979Z,18.45
2023-01-30T04:36:08.300Z,18.30
2023-01-30T04:38:36.320Z,18.70
2023-01-30T04:41:04.931Z,18.20
2023-01-30T04:46:23.373Z,17.63
2023-01-30T04:48:50.645Z,18.30
2023-01-30T04:51:17.955Z,18.02
2023-01-30T04:53:45.494Z,17.77
2023-01-30T04:56:14.011Z,17.83
2023-01-30T04:58:42.379Z,17.42
2023-01-30T05:01:41.629Z,18.40
2023-01-30T05:04:09.235Z,17.80
2023-01-30T05:06:37.039Z,17.95
2023-01-30T05:09:04.716Z,17.02
2023-01-30T05:11:33.475Z,18.13
2023-01-30T05:14:00.840Z,17.10
2023-01-30T05:16:28.566Z,18.40
2023-01-30T05:18:55.916Z,18.95
2023-01-30T05:21:26.268Z,18.15
2023-01-30T05:23:54.616Z,17.95
2023-01-30T05:26:22.329Z,18.60
2023-01-30T05:28:54.446Z,17.48
2023-01-30T05:31:21.878Z,17.90
2023-01-30T05:34:00.822Z,16.63
2023-01-30T05:36:31.079Z,18.05
2023-01-30T05:39:07.912Z,18.27
2023-01-30T05:41:35.555Z,17.90
2023-01-30T05:44:02.770Z,17.45
2023-01-30T05:46:30.165Z,18.40
2023-01-30T05:48:57.614Z,17.60
2023-01-30T05:51:26.141Z,17.58
2023-01-30T05:53:53.762Z,18.10
2023-01-30T05:56:21.586Z,17.55
2023-01-30T05:58:53.330Z,17.95
2023-01-30T06:01:20.987Z,17.63
2023-01-30T06:03:48.860Z,17.48
2023-01-30T06:06:16.369Z,17.15
2023-01-30T06:08:43.693Z,17.65
2023-01-30T06:11:13.675Z,17.13
2023-01-30T06:16:11.940Z,16.77
2023-01-30T06:18:39.570Z,17.40
2023-01-30T06:21:07.237Z,16.85
2023-01-30T06:23:34.614Z,16.85
2023-01-30T06:26:03.699Z,16.80
2023-01-30T06:28:32.237Z,15.85
2023-01-30T06:30:59.671Z,16.02
2023-01-30T06:33:27.147Z,16.13
2023-01-30T06:35:54.840Z,16.27
2023-01-30T06:38:22.253Z,15.48
2023-01-30T06:40:50.600Z,16.50
2023-01-30T06:43:18.096Z,15.30
2023-01-30T06:45:45.688Z,16.45
2023-01-30T06:48:13.125Z,16.80
2023-01-30T06:50:40.440Z,16.55
2023-01-30T06:53:08.429Z,17.35
2023-01-30T06:55:36.398Z,17.75
2023-01-30T06:58:14.306Z,17.08
2023-01-30T07:00:42.588Z,15.90
2023-01-30T07:03:17.724Z,16.38
2023-01-30T07:05:49.739Z,16.00
2023-01-30T07:08:17.260Z,15.20
2023-01-30T07:10:45.026Z,16.88
2023-01-30T07:13:12.774Z,15.73
2023-01-30T07:15:40.111Z,15.45
2023-01-30T07:18:08.530Z,14.82
2023-01-30T07:20:35.998Z,15.00
2023-01-30T07:23:03.543Z,15.35
2023-01-30T07:25:30.843Z,14.73
2023-01-30T07:27:59.996Z,16.67
2023-01-30T07:30:28.476Z,14.47
2023-01-30T07:32:57.859Z,14.07
2023-01-30T07:35:27.153Z,14.40
2023-01-30T07:37:54.378Z,13.00
2023-01-30T07:40:22.079Z,13.05
2023-01-30T07:43:00.477Z,13.35
2023-01-30T07:45:44.957Z,13.45
2023-01-30T07:48:14.478Z,14.02
2023-01-30T07:50:42.210Z,15.18
2023-01-30T07:53:11.656Z,14.82
2023-01-30T07:55:38.915Z,14.65
2023-01-30T07:58:06.208Z,14.60
2023-01-30T08:00:34.339Z,14.13
2023-01-30T08:03:01.707Z,14.52
2023-01-30T08:05:29.117Z,15.18
2023-01-30T08:07:56.772Z,16.13
2023-01-30T08:10:24.115Z,14.00
2023-01-30T08:12:51.724Z,15.15
2023-01-30T08:15:20.649Z,14.18
2023-01-30T08:17:56.220Z,14.95
2023-01-30T08:20:24.270Z,13.27
2023-01-30T08:22:51.552Z,15.02
2023-01-30T08:25:19.199Z,14.63
2023-01-30T08:27:47.087Z,14.30
2023-01-30T08:30:14.581Z,13.73
2023-01-30T08:32:41.848Z,15.13
2023-01-30T08:35:09.905Z,13.88
2023-01-30T08:37:39.662Z,14.15
2023-01-30T08:40:08.208Z,13.65
2023-01-30T08:42:35.588Z,13.13
2023-01-30T08:45:03.111Z,13.57
2023-01-30T08:47:31.100Z,13.73
2023-01-30T08:49:58.439Z,13.40
2023-01-30T08:52:25.813Z,13.43
2023-01-30T08:54:53.403Z,14.88
2023-01-30T08:57:20.682Z,13.55
2023-01-30T08:59:48.384Z,13.90
2023-01-30T09:02:15.780Z,13.02
2023-01-30T09:04:43.022Z,12.68
2023-01-30T09:07:10.557Z,13.85
2023-01-30T09:09:37.981Z,12.77
2023-01-30T09:12:05.472Z,13.23
2023-01-30T09:14:32.883Z,12.82
2023-01-30T09:17:00.373Z,12.43
2023-01-30T09:19:28.693Z,12.68
2023-01-30T09:21:56.652Z,13.20
2023-01-30T09:24:27.881Z,12.38
2023-01-30T09:26:57.715Z,12.25
2023-01-30T09:29:28.613Z,12.45
2023-01-30T09:31:56.870Z,12.88
2023-01-30T09:34:28.852Z,12.30
2023-01-30T09:36:57.670Z,11.63
2023-01-30T09:39:24.980Z,12.70
2023-01-30T09:42:04.728Z,12.20
2023-01-30T09:44:41.327Z,11.48
2023-01-30T09:47:12.764Z,12.82
2023-01-30T09:49:48.936Z,13.20
2023-01-30T09:52:35.015Z,12.18
2023-01-30T09:55:22.109Z,12.93
2023-01-30T09:57:49.828Z,13.75
2023-01-30T10:00:26.937Z,12.23
2023-01-30T10:03:05.372Z,11.38
2023-01-30T10:05:46.530Z,8.05
2023-01-30T10:08:38.617Z,9.73
2023-01-30T10:11:31.059Z,10.68
2023-01-30T10:14:32.417Z,11.48
2023-01-30T10:17:21.644Z,10.50
2023-01-30T10:20:20.725Z,10.90
2023-01-30T10:23:05.202Z,10.47
2023-01-30T10:25:47.927Z,11.25
2023-01-30T10:28:30.686Z,10.85
2023-01-30T10:31:09.458Z,11.30
2023-01-30T10:33:44.987Z,10.00
2023-01-30T10:36:28.299Z,9.50
2023-01-30T10:38:57.309Z,10.25
2023-01-30T10:41:47.860Z,8.55
2023-01-30T10:44:18.491Z,9.23
2023-01-30T10:46:57.636Z,8.95
2023-01-30T10:49:44.279Z,8.70
2023-01-30T10:52:43.960Z,8.57
2023-01-30T10:55:36.270Z,8.70
2023-01-30T10:58:18.713Z,9.00
2023-01-30T11:00:46.517Z,7.13
2023-01-30T11:03:32.556Z,8.05
2023-01-30T11:06:06.679Z,7.30
2023-01-30T11:08:35.219Z,7.90
2023-01-30T11:11:25.269Z,7.85
2023-01-30T11:16:28.450Z,7.78
2023-01-30T11:19:19.635Z,6.38
2023-01-30T11:21:51.935Z,6.68
2023-01-30T11:24:23.371Z,11.32
2023-01-30T11:26:52.739Z,8.48
2023-01-30T11:29:31.966Z,8.13
2023-01-30T11:32:11.941Z,7.03
2023-01-30T11:37:25.956Z,5.78
2023-01-30T11:39:53.539Z,6.75
2023-01-30T11:42:25.427Z,6.43
2023-01-30T11:45:14.876Z,12.60
2023-01-30T11:48:05.782Z,23.15
2023-01-30T11:50:41.636Z,13.18
2023-01-30T11:53:29.668Z,10.73
2023-01-30T11:56:08.803Z,11.35
2023-01-30T11:58:39.988Z,8.48
2023-01-30T12:01:09.722Z,7.35
2023-01-30T12:03:47.843Z,6.63
2023-01-30T12:06:32.492Z,7.25
2023-01-30T12:08:59.899Z,6.55
2023-01-30T12:11:32.046Z,6.05
2023-01-30T12:14:13.248Z,6.03
2023-01-30T12:17:01.005Z,6.30
2023-01-30T12:19:38.238Z,6.70
2023-01-30T12:22:21.955Z,6.63
2023-01-30T12:25:11.071Z,6.25
2023-01-30T12:27:48.468Z,7.22
2023-01-30T12:30:24.587Z,6.38
2023-01-30T12:32:57.150Z,6.07
2023-01-30T12:35:32.144Z,5.70
2023-01-30T12:38:17.995Z,5.75
2023-01-30T12:41:19.783Z,5.80
2023-01-30T12:44:16.098Z,6.28
2023-01-30T12:46:46.541Z,5.68
2023-01-30T12:49:29.665Z,5.88
2023-01-30T12:52:41.597Z,6.20
2023-01-30T12:55:35.309Z,5.95
2023-01-30T12:58:13.082Z,5.43
2023-01-30T13:01:22.385Z,6.22
2023-01-30T13:04:15.203Z,6.00
2023-01-30T13:07:09.275Z,6.70
2023-01-30T13:09:45.360Z,6.00
2023-01-30T13:12:27.879Z,5.70
2023-01-30T13:14:55.116Z,6.63
2023-01-30T13:17:49.912Z,7.40
2023-01-30T13:20:28.772Z,6.93
2023-01-30T13:23:02.451Z,6.15
2023-01-30T13:25:41.292Z,5.88
2023-01-30T13:28:20.821Z,5.35
2023-01-30T13:30:49.984Z,6.22
2023-01-30T13:33:22.859Z,6.23
2023-01-30T13:35:54.699Z,6.35
2023-01-30T13:38:27.427Z,5.85
2023-01-30T13:40:57.546Z,5.25
2023-01-30T13:43:31.582Z,5.47
2023-01-30T13:46:01.929Z,5.40
2023-01-30T13:48:42.792Z,6.07
2023-01-30T13:51:31.813Z,5.88
2023-01-30T13:54:11.417Z,5.60
2023-01-30T13:56:54.695Z,5.63
2023-01-30T13:59:36.795Z,5.63
2023-01-30T14:02:04.389Z,6.10
2023-01-30T14:04:41.234Z,5.53
2023-01-30T14:07:34.079Z,5.45
2023-01-30T14:10:10.746Z,5.13
2023-01-30T14:12:49.922Z,4.80
2023-01-30T14:15:18.938Z,4.95
2023-01-30T14:18:00.299Z,5.25
2023-01-30T14:20:30.329Z,5.45
2023-01-30T14:23:01.769Z,5.22
2023-01-30T14:25:29.288Z,5.45
2023-01-30T14:27:59.666Z,5.70
2023-01-30T14:30:45.262Z,5.28
2023-01-30T14:33:21.664Z,5.60
2023-01-30T14:36:14.848Z,5.47
2023-01-30T14:38:44.487Z,5.80
2023-01-30T14:41:27.025Z,6.00
2023-01-30T14:43:54.698Z,5.63
2023-01-30T14:46:22.082Z,5.25
2023-01-30T14:49:01.049Z,5.72
2023-01-30T14:51:43.545Z,5.57
2023-01-30T14:54:14.584Z,5.57
2023-01-30T14:56:46.254Z,5.07
2023-01-30T14:59:16.751Z,5.10
2023-01-30T15:01:59.404Z,5.68
2023-01-30T15:04:54.900Z,5.45
2023-01-30T15:07:23.356Z,5.38
2023-01-30T15:09:57.348Z,5.65
2023-01-30T15:12:43.122Z,5.50
2023-01-30T15:15:19.801Z,5.35
2023-01-30T15:18:10.077Z,5.35
2023-01-30T15:21:15.191Z,7.13
2023-01-30T15:23:49.143Z,5.93
2023-01-30T15:26:35.472Z,5.93
2023-01-30T15:29:30.999Z,5.78
2023-01-30T15:32:03.472Z,5.75
2023-01-30T15:34:32.374Z,6.05
2023-01-30T15:37:00.107Z,6.10
2023-01-30T15:39:28.458Z,5.95
2023-01-30T15:42:04.896Z,5.88
2023-01-30T15:44:53.346Z,5.93
2023-01-30T15:47:48.247Z,5.35
2023-01-30T15:50:15.736Z,5.68
2023-01-30T15:52:48.269Z,5.18
2023-01-30T15:55:27.291Z,4.97
2023-01-30T15:58:04.738Z,5.18
2023-01-30T16:00:36.271Z,5.22
2023-01-30T16:03:05.571Z,5.35
2023-01-30T16:05:32.841Z,4.50
2023-01-30T16:08:10.821Z,4.70
2023-01-30T16:10:46.449Z,5.03
2023-01-30T16:13:13.762Z,4.55
2023-01-30T16:15:47.267Z,4.95
2023-01-30T16:18:33.116Z,5.25
2023-01-30T16:21:05.294Z,4.20
2023-01-30T16:23:38.353Z,4.22
2023-01-30T16:26:08.039Z,4.10
2023-01-30T16:28:35.493Z,4.03
2023-01-30T16:31:05.960Z,4.40
2023-01-30T16:33:37.033Z,4.63
2023-01-30T16:36:27.917Z,4.00
2023-01-30T16:38:55.849Z,4.05
2023-01-30T16:41:31.410Z,4.35
2023-01-30T16:44:17.563Z,3.95
2023-01-30T16:46:48.266Z,3.97
2023-01-30T16:49:22.220Z,4.03
2023-01-30T16:51:50.994Z,4.13
2023-01-30T16:54:24.512Z,4.00
2023-01-30T16:56:54.567Z,3.47
2023-01-30T16:59:29.880Z,3.63
2023-01-30T17:01:59.184Z,3.65
2023-01-30T17:04:29.801Z,3.42
2023-01-30T17:07:00.807Z,3.42
2023-01-30T17:09:33.491Z,3.97
2023-01-30T17:12:00.907Z,4.38
2023-01-30T17:14:31.469Z,3.47
2023-01-30T17:17:12.360Z,4.22
2023-01-30T17:19:39.743Z,3.35
2023-01-30T17:22:09.108Z,3.75
2023-01-30T17:24:36.601Z,3.22
2023-01-30T17:27:04.623Z,3.97
2023-01-30T17:29:42.357Z,3.20
2023-01-30T17:32:12.308Z,3.70
2023-01-30T17:34:41.226Z,3.60
2023-01-30T17:37:17.153Z,3.88
2023-01-30T17:39:44.758Z,2.97
2023-01-30T17:42:13.302Z,3.38
2023-01-30T17:44:41.127Z,3.25
2023-01-30T17:47:11.848Z,3.90
2023-01-30T17:49:40.066Z,3.60
2023-01-30T17:52:07.368Z,4.05
2023-01-30T17:54:34.740Z,3.78
2023-01-30T17:57:09.805Z,3.45
2023-01-30T17:59:37.122Z,4.22
2023-01-30T18:02:05.135Z,3.45
2023-01-30T18:04:32.463Z,3.45
2023-01-30T18:07:04.388Z,3.25
2023-01-30T18:09:32.463Z,3.28
2023-01-30T18:11:59.785Z,4.13
2023-01-30T18:14:27.156Z,4.72
2023-01-30T18:16:59.994Z,5.07
2023-01-30T18:19:31.628Z,4.03
2023-01-30T18:21:59.180Z,3.58
2023-01-30T18:24:37.827Z,3.70
2023-01-30T18:27:19.428Z,4.32
2023-01-30T18:29:46.773Z,4.47
2023-01-30T18:32:14.329Z,4.18
2023-01-30T18:34:41.980Z,4.20
2023-01-30T18:37:16.803Z,5.05
2023-01-30T18:39:47.734Z,3.78
2023-01-30T18:42:15.123Z,4.47
2023-01-30T18:44:42.476Z,5.35
2023-01-30T18:47:09.714Z,4.30
2023-01-30T18:49:37.076Z,4.90
2023-01-30T18:52:04.976Z,4.72
2023-01-30T18:54:32.579Z,4.55
2023-01-30T18:57:00.428Z,5.25
2023-01-30T18:59:27.800Z,4.60
2023-01-30T19:01:55.068Z,5.22
2023-01-30T19:04:23.818Z,5.57
2023-01-30T19:06:51.113Z,4.53
2023-01-30T19:09:19.126Z,5.55
2023-01-30T19:12:04.738Z,4.80
2023-01-30T19:14:32.067Z,5.40
2023-01-30T19:16:59.455Z,5.35
2023-01-30T19:19:27.265Z,6.28
2023-01-30T19:21:54.624Z,5.80
2023-01-30T19:24:22.339Z,7.50
2023-01-30T19:26:50.459Z,8.48
2023-01-30T19:29:18.372Z,6.93
2023-01-30T19:31:47.382Z,8.63
2023-01-30T19:34:15.175Z,13.82
2023-01-30T19:36:42.717Z,8.43
2023-01-30T19:39:10.252Z,7.85
2023-01-30T19:41:37.578Z,7.57
2023-01-30T19:44:06.802Z,8.05
2023-01-30T19:46:34.680Z,10.70
2023-01-30T19:49:03.467Z,8.32
2023-01-30T19:51:33.660Z,7.40
2023-01-30T19:56:33.192Z,7.55
2023-01-30T19:59:01.171Z,7.72
2023-01-30T20:01:32.546Z,8.98
2023-01-30T20:04:01.776Z,7.72
2023-01-30T20:06:31.809Z,10.07
2023-01-30T20:09:01.642Z,8.13
2023-01-30T20:11:29.914Z,7.80
2023-01-30T20:13:58.491Z,8.38
2023-01-30T20:16:27.746Z,7.70
2023-01-30T20:19:00.606Z,8.30
2023-01-30T20:21:30.076Z,8.82
2023-01-30T20:23:58.293Z,8.07
2023-01-30T20:26:28.535Z,8.57
2023-01-30T20:28:56.763Z,8.55
2023-01-30T20:31:26.014Z,8.18
2023-01-30T20:33:55.796Z,8.05
2023-01-30T20:36:24.864Z,7.25
2023-01-30T20:38:53.642Z,8.80
2023-01-30T20:41:25.760Z,7.60
2023-01-30T20:43:57.880Z,8.30
2023-01-30T20:46:30.148Z,7.90
2023-01-30T20:48:59.145Z,8.52
2023-01-30T20:51:28.534Z,9.40
2023-01-30T20:53:58.791Z,10.40
2023-01-30T20:58:54.157Z,9.05
2023-01-30T21:01:23.772Z,10.02
2023-01-30T21:03:53.188Z,9.70
2023-01-30T21:06:41.116Z,10.23
2023-01-30T21:09:17.603Z,10.73
2023-01-30T21:11:45.206Z,11.65
2023-01-30T21:14:12.751Z,12.07
2023-01-30T21:16:40.283Z,11.35
2023-01-30T21:19:11.146Z,11.98
2023-01-30T21:21:46.970Z,11.43
2023-01-30T21:24:15.177Z,11.45
2023-01-30T21:26:46.177Z,11.88
2023-01-30T21:29:15.581Z,10.85
2023-01-30T21:31:44.290Z,12.00
2023-01-30T21:34:12.453Z,12.50
2023-01-30T21:36:40.332Z,11.43
2023-01-30T21:39:26.321Z,11.77
2023-01-30T21:42:12.049Z,11.10
2023-01-30T21:44:41.088Z,12.00
2023-01-30T21:47:08.729Z,11.63
2023-01-30T21:49:37.001Z,15.35
2023-01-30T21:52:04.571Z,16.70
2023-01-30T21:54:31.933Z,13.50
2023-01-30T21:56:59.300Z,13.73
2023-01-30T21:59:26.687Z,13.00
2023-01-30T22:01:54.013Z,14.07
2023-01-30T22:04:21.459Z,13.80
2023-01-30T22:06:48.785Z,12.93
2023-01-30T22:09:16.190Z,13.23
2023-01-30T22:11:43.876Z,11.90
2023-01-30T22:14:14.923Z,12.63
2023-01-30T22:16:42.301Z,12.23
2023-01-30T22:19:09.978Z,11.77
2023-01-30T22:21:39.943Z,11.93
2023-01-30T22:24:08.866Z,12.07
2023-01-30T22:26:36.674Z,11.65
2023-01-30T22:29:05.144Z,11.90
2023-01-30T22:31:37.425Z,11.80
2023-01-30T22:34:05.008Z,11.77
2023-01-30T22:36:33.982Z,10.43
2023-01-30T22:39:02.214Z,11.60
2023-01-30T22:41:32.539Z,10.05
2023-01-30T22:44:00.184Z,10.75
2023-01-30T22:46:31.401Z,9.73
2023-01-30T22:49:00.195Z,10.18
2023-01-30T22:51:33.807Z,10.30
2023-01-30T22:54:09.988Z,10.80
2023-01-30T22:56:40.916Z,10.55
2023-01-30T22:59:08.948Z,11.02
2023-01-30T23:01:41.656Z,10.60
2023-01-30T23:04:18.636Z,11.10
2023-01-30T23:06:49.276Z,10.00
2023-01-30T23:09:25.529Z,10.48
2023-01-30T23:12:16.765Z,11.20
2023-01-30T23:14:45.010Z,18.02
2023-01-30T23:17:39.163Z,15.93
2023-01-30T23:20:12.805Z,10.98
2023-01-30T23:22:40.605Z,10.02
2023-01-30T23:25:09.122Z,10.80
2023-01-30T23:27:40.103Z,10.77
2023-01-30T23:30:11.539Z,11.10
2023-01-30T23:32:39.947Z,12.07
2023-01-30T23:35:10.406Z,11.48
2023-01-30T23:37:59.732Z,10.65
2023-01-30T23:40:27.590Z,10.70
2023-01-30T23:42:54.940Z,10.98
2023-01-30T23:45:25.586Z,11.02
2023-01-30T23:47:53.724Z,10.82
2023-01-30T23:50:29.477Z,11.27
2023-01-30T23:53:00.101Z,11.85
2023-01-30T23:55:27.529Z,10.75
2023-01-30T23:57:54.808Z,12.13
